Afanasiy Matyushenko — EOIA — position and weather

sailwx.info

Track history (hours):
 
Tides and Currents Weather Stations Pressure Air Temp Water Temp Dewpoint Dewpoint Depression Visibility Wind Speed Wind Dir Waves Ship Positions

Afanasiy Matyushenko

Last reported at 2018-Jan-06 16:17 UTC. Time now 2018-Jan-24 04:06 UTC.
Position N 42°08' E 029°26'.
Warning: this ship's position is 17 days out of date.

Length 114 m; draft 3.9 m.

Type: Cargo ship. MMSI: 272076000.

Date/timePositionNaut miles runAvg speedWind from/ knotsBaromVisibWave heightAir tempDewpointWater temp
2018-Jan-06 16:17N 42°08' E 029°26'2 7.3
2018-Jan-06 16:00N 42°10' E 029°27'21 7.1
2018-Jan-06 12:59N 42°31' E 029°34'12 6.8
2018-Jan-06 11:15N 42°42' E 029°39'6 6.8
2018-Jan-06 10:24N 42°48' E 029°42'3 6.8
2018-Jan-06 10:00N 42°50' E 029°43'4 6.9
2018-Jan-06 09:21N 42°55' E 029°45'3 6.8
2018-Jan-06 08:59N 42°57' E 029°46'34 7.0
2018-Jan-06 04:07N 43°30' E 029°60'14 7.1
2018-Jan-06 02:10N 43°43' E 030°05'2 7.0
2018-Jan-06 01:57N 43°44' E 030°06'18 7.1
2018-Jan-05 23:24N 44°02' E 030°12'3 7.1
2018-Jan-05 23:00N 44°04' E 030°13'3 7.1
2018-Jan-05 22:30N 44°08' E 030°15'131 7.4
2018-Jan-05 04:55N 46°16' E 030°54'7 7.7
2018-Jan-05 03:59N 46°23' E 030°55'4 7.7
2018-Jan-05 03:26N 46°27' E 030°55'4 7.5
2018-Jan-05 02:58N 46°31' E 030°56'25 7.3
2018-Jan-04 23:32N 46°35' E 031°31'5 7.7
2018-Jan-04 22:51N 46°36' E 031°39'3 8.0
2018-Jan-04 22:29N 46°36' E 031°43'4 7.8
2018-Jan-04 22:00N 46°36' E 031°49'4 7.7
2018-Jan-04 21:30N 46°34' E 031°54'4 7.6
2018-Jan-04 21:00N 46°33' E 031°59'4 7.7
2018-Jan-04 20:30N 46°32' E 032°04'4 7.5
2018-Jan-04 20:00N 46°32' E 032°10'4 7.5
2018-Jan-04 19:26N 46°33' E 032°16'  
2018-Jan-01 14:46N 46°33' E 032°16'2 7.7
2018-Jan-01 14:30N 46°33' E 032°13'4 7.6
2018-Jan-01 14:00N 46°32' E 032°08'4 7.4
2018-Jan-01 13:30N 46°32' E 032°03'4 7.6
2018-Jan-01 13:01N 46°33' E 031°58'7 7.5
2018-Jan-01 12:01N 46°36' E 031°47'35 6.9
2018-Jan-01 06:58N 46°31' E 030°57'8 7.8
2018-Jan-01 06:00N 46°24' E 030°57'  
Track history (hours):
 
Tides and Currents Weather Stations Pressure Air Temp Water Temp Dewpoint Dewpoint Depression Visibility Wind Speed Wind Dir Waves Ship Positions

Afanasiy Matyushenko

Last reported at 2018-Jan-06 16:17 UTC. Time now 2018-Jan-24 04:06 UTC.
Position N 42°08' E 029°26'.
Warning: this ship's position is 17 days out of date.

Length 114 m; draft 3.9 m.

Type: Cargo ship. MMSI: 272076000.

Date/timePositionNaut miles runAvg speedWind from/ knotsBaromVisibWave heightAir tempDewpointWater temp
2018-Jan-06 16:17N 42°08' E 029°26'2 7.3
2018-Jan-06 16:00N 42°10' E 029°27'21 7.1
2018-Jan-06 12:59N 42°31' E 029°34'12 6.8
2018-Jan-06 11:15N 42°42' E 029°39'6 6.8
2018-Jan-06 10:24N 42°48' E 029°42'3 6.8
2018-Jan-06 10:00N 42°50' E 029°43'4 6.9
2018-Jan-06 09:21N 42°55' E 029°45'3 6.8
2018-Jan-06 08:59N 42°57' E 029°46'34 7.0
2018-Jan-06 04:07N 43°30' E 029°60'14 7.1
2018-Jan-06 02:10N 43°43' E 030°05'2 7.0
2018-Jan-06 01:57N 43°44' E 030°06'18 7.1
2018-Jan-05 23:24N 44°02' E 030°12'3 7.1
2018-Jan-05 23:00N 44°04' E 030°13'3 7.1
2018-Jan-05 22:30N 44°08' E 030°15'131 7.4
2018-Jan-05 04:55N 46°16' E 030°54'7 7.7
2018-Jan-05 03:59N 46°23' E 030°55'4 7.7
2018-Jan-05 03:26N 46°27' E 030°55'4 7.5
2018-Jan-05 02:58N 46°31' E 030°56'25 7.3
2018-Jan-04 23:32N 46°35' E 031°31'5 7.7
2018-Jan-04 22:51N 46°36' E 031°39'3 8.0
2018-Jan-04 22:29N 46°36' E 031°43'4 7.8
2018-Jan-04 22:00N 46°36' E 031°49'4 7.7
2018-Jan-04 21:30N 46°34' E 031°54'4 7.6
2018-Jan-04 21:00N 46°33' E 031°59'4 7.7
2018-Jan-04 20:30N 46°32' E 032°04'4 7.5
2018-Jan-04 20:00N 46°32' E 032°10'4 7.5
2018-Jan-04 19:26N 46°33' E 032°16'  
2018-Jan-01 14:46N 46°33' E 032°16'2 7.7
2018-Jan-01 14:30N 46°33' E 032°13'4 7.6
2018-Jan-01 14:00N 46°32' E 032°08'4 7.4
2018-Jan-01 13:30N 46°32' E 032°03'4 7.6
2018-Jan-01 13:01N 46°33' E 031°58'7 7.5
2018-Jan-01 12:01N 46°36' E 031°47'35 6.9
2018-Jan-01 06:58N 46°31' E 030°57'8 7.8
2018-Jan-01 06:00N 46°24' E 030°57'  

Dump ship's entire track history